Time;durP1;ratioP1;P1;durP2;ratioP2;P2;SDS_P1;SDS_P2;PMS_P1;PMS_P2;Temp;Humidity;BMP_temperature;BMP_pressure;BME280_temperature;BME280_humidity;BME280_pressure;Samples;Min_cycle;Max_cycle;Signal;HPM_P1;HPM_P2
2023/01/19 00:01:21;;;;;;;;;4.00;4.00;;;;;3.93;77.24;99945.97;5073372;28;45676;-78
2023/01/19 00:03:47;;;;;;;;;7.25;5.50;;;;;3.93;76.79;99945.97;5074514;28;45632;-76
2023/01/19 00:06:12;;;;;;;;;8.00;7.00;;;;;3.89;76.98;99947.88;5074485;28;45653;-79
2023/01/19 00:08:38;;;;;;;;;4.00;4.00;;;;;3.88;77.49;99951.41;5074584;28;45649;-78
2023/01/19 00:11:03;;;;;;;;;10.25;4.75;;;;;3.61;77.51;99911.44;5074181;28;45561;-80
2023/01/19 00:13:29;;;;;;;;;10.00;8.00;;;;;3.83;77.30;99958.59;5074190;28;46639;-78
2023/01/19 00:15:55;;;;;;;;;7.75;7.00;;;;;3.81;77.54;99960.41;5074245;28;45660;-79
2023/01/19 00:18:20;;;;;;;;;6.50;4.50;;;;;3.74;77.75;99956.47;5055715;28;45842;-79
2023/01/19 00:20:46;;;;;;;;;7.75;5.00;;;;;3.76;77.86;99968.44;5074152;28;45611;-80
2023/01/19 00:23:12;;;;;;;;;7.00;5.25;;;;;3.73;77.75;99967.75;5074036;28;46679;-75
2023/01/19 00:25:41;;;;;;;;;6.00;4.25;;;;;3.78;78.04;99965.75;5074265;28;46232;-76
2023/01/19 00:28:07;;;;;;;;;5.00;5.00;;;;;3.78;78.29;99961.41;5074433;28;45745;-78
2023/01/19 00:30:32;;;;;;;;;9.00;6.50;;;;;3.61;77.85;99935.59;5074611;27;45718;-77
2023/01/19 00:36:19;;;;;;;;;6.50;4.50;;;;;3.71;78.00;99964.44;5074027;28;46209;-76
2023/01/19 00:38:44;;;;;;;;;7.50;4.75;;;;;3.54;77.77;99942.00;5074485;28;45669;-79
2023/01/19 00:41:10;;;;;;;;;7.00;6.50;;;;;3.62;77.97;99963.13;5074035;28;45763;-77
2023/01/19 00:43:35;;;;;;;;;10.00;7.00;;;;;3.56;78.35;99963.50;5074082;28;46449;-76
2023/01/19 00:46:00;;;;;;;;;4.00;4.00;;;;;3.59;78.06;99970.25;5073887;28;45782;-78
2023/01/19 00:48:26;;;;;;;;;6.50;6.50;;;;;3.59;78.23;99981.44;5074133;28;45719;-80
2023/01/19 00:50:51;;;;;;;;;7.00;5.50;;;;;3.56;77.85;99978.19;5074085;28;45765;-78
2023/01/19 00:53:17;;;;;;;;;4.25;4.25;;;;;3.52;77.99;99974.06;5073757;28;45709;-78
2023/01/19 00:55:42;;;;;;;;;5.25;4.00;;;;;3.44;78.10;99960.69;5054820;28;46124;-78
2023/01/19 00:58:08;;;;;;;;;5.00;4.75;;;;;3.45;78.14;99975.31;5073596;28;45722;-78
2023/01/19 01:00:33;;;;;;;;;8.50;8.50;;;;;3.33;78.25;99948.31;5073937;28;45756;-77
2023/01/19 01:06:21;;;;;;;;;7.75;7.50;;;;;3.48;78.16;99977.75;5075029;28;45664;-79
2023/01/19 01:08:46;;;;;;;;;7.00;5.75;;;;;3.49;78.12;99993.19;5077372;28;45608;-75
2023/01/19 01:11:12;;;;;;;;;12.00;8.00;;;;;3.48;78.07;100003.63;5077655;28;45751;-80
2023/01/19 01:13:37;;;;;;;;;9.50;7.50;;;;;3.43;78.30;99990.94;5077400;28;45733;-78
2023/01/19 01:16:03;;;;;;;;;6.75;4.75;;;;;3.44;78.26;100002.97;5078165;28;46671;-77
2023/01/19 01:22:17;;;;;;;;;12.25;10.00;;;;;3.41;78.39;100015.22;5069965;28;46020;-77
2023/01/19 01:24:43;;;;;;;;;11.00;9.00;;;;;3.37;78.42;100017.97;5076785;28;46432;-77
2023/01/19 01:27:08;;;;;;;;;13.00;7.00;;;;;3.24;78.49;100001.38;5077046;28;45943;-77
2023/01/19 01:29:35;;;;;;;;;8.75;7.75;;;;;3.14;78.35;99997.59;5077459;28;45498;-77
2023/01/19 01:32:01;;;;;;;;;7.25;6.00;;;;;3.20;78.35;100017.97;5076854;28;45479;-75
2023/01/19 01:34:26;;;;;;;;;8.00;7.25;;;;;3.17;78.54;100019.91;5077004;28;45641;-77
2023/01/19 01:36:53;;;;;;;;;8.25;8.00;;;;;2.91;78.46;99983.22;5076792;28;46119;-78
2023/01/19 01:39:19;;;;;;;;;10.25;9.25;;;;;3.02;78.86;100003.41;5076874;28;45899;-78
2023/01/19 01:41:44;;;;;;;;;6.00;5.25;;;;;2.71;78.86;99973.00;5076883;28;45723;-77
2023/01/19 01:44:48;;;;;;;;;12.25;8.25;;;;;3.12;78.80;100037.41;5076711;28;45595;-80
2023/01/19 01:47:25;;;;;;;;;13.50;11.75;;;;;3.12;78.98;100033.06;5076565;28;46281;-78
2023/01/19 01:50:01;;;;;;;;;15.00;10.75;;;;;3.13;78.93;100041.66;5076758;28;45551;-80
2023/01/19 01:52:29;;;;;;;;;15.25;10.00;;;;;3.15;78.85;100042.41;5076619;28;45596;-78
2023/01/19 01:54:56;;;;;;;;;12.25;10.50;;;;;3.16;78.92;100054.44;5076433;28;45620;-79
2023/01/19 01:57:21;;;;;;;;;12.00;10.25;;;;;2.92;79.05;100005.56;5077176;28;46119;-76
2023/01/19 01:59:49;;;;;;;;;12.75;12.00;;;;;3.21;78.98;100049.88;5077204;28;45613;-80
2023/01/19 02:05:20;;;;;;;;;17.50;13.50;;;;;3.17;78.92;100040.59;5076433;28;45576;-81
2023/01/19 02:13:23;;;;;;;;;9.50;9.25;;;;;3.11;79.01;100041.75;5076281;28;45787;-79
2023/01/19 02:15:58;;;;;;;;;15.00;11.00;;;;;3.10;79.01;100047.81;5058294;28;45755;-80
2023/01/19 02:18:27;;;;;;;;;12.50;10.00;;;;;2.92;79.16;100021.09;5076047;28;46173;-78
2023/01/19 02:21:18;;;;;;;;;12.75;12.50;;;;;3.13;78.95;100055.41;5076144;28;45554;-77
2023/01/19 02:23:48;;;;;;;;;16.00;10.00;;;;;3.16;79.00;100055.28;5059879;28;45834;-80
2023/01/19 02:26:23;;;;;;;;;20.25;15.00;;;;;3.21;79.24;100062.81;5075887;28;45489;-78
2023/01/19 02:29:11;;;;;;;;;20.75;12.75;;;;;2.88;79.08;100011.81;5076173;28;46193;-81
2023/01/19 02:31:38;;;;;;;;;11.25;10.75;;;;;3.27;79.14;100062.50;5075576;27;46037;-79
2023/01/19 02:34:05;;;;;;;;;16.00;12.00;;;;;3.30;79.15;100067.53;5076190;28;45560;-80
2023/01/19 02:36:43;;;;;;;;;19.25;14.75;;;;;3.29;79.10;100056.31;5076305;28;45818;-79
2023/01/19 02:39:10;;;;;;;;;15.00;13.00;;;;;3.38;78.94;100063.66;5076057;28;45583;-79
2023/01/19 02:41:43;;;;;;;;;13.00;11.25;;;;;3.43;78.70;100060.00;5076029;28;45920;-78
2023/01/19 02:44:11;;;;;;;;;13.75;8.50;;;;;3.39;78.74;100048.97;5076224;28;45510;-78
2023/01/19 02:46:37;;;;;;;;;11.75;10.00;;;;;3.27;78.79;100015.94;5077532;28;45767;-78
2023/01/19 02:49:03;;;;;;;;;20.50;10.50;;;;;3.51;78.55;100050.91;5079159;28;46305;-80
2023/01/19 02:51:28;;;;;;;;;13.00;8.50;;;;;3.56;78.51;100050.69;5076928;28;45614;-79
2023/01/19 02:54:26;;;;;;;;;7.75;7.00;;;;;3.57;78.54;100049.75;5076854;28;45639;-78
2023/01/19 02:56:52;;;;;;;;;12.50;8.00;;;;;3.58;78.20;100041.06;5076251;28;46403;-79
2023/01/19 02:59:36;;;;;;;;;11.33;10.00;;;;;3.58;78.40;100046.25;5075750;28;45551;-79
2023/01/19 03:02:37;;;;;;;;;14.25;10.00;;;;;3.61;78.29;100048.69;5075567;28;45690;-81
2023/01/19 03:05:30;;;;;;;;;11.00;10.50;;;;;3.60;78.52;100041.84;5033731;28;45753;-80
2023/01/19 03:08:07;;;;;;;;;13.50;10.50;;;;;3.66;78.25;100044.13;5033421;28;45588;-79
2023/01/19 03:10:50;;;;;;;;;14.75;11.25;;;;;3.68;78.59;100050.03;5033383;28;46152;-80
2023/01/19 03:13:31;;;;;;;;;15.75;13.00;;;;;3.70;78.17;100056.00;5033397;28;46019;-79
2023/01/19 03:16:05;;;;;;;;;13.50;10.00;;;;;3.71;78.00;100061.09;5034197;28;45770;-80
2023/01/19 03:21:57;;;;;;;;;15.00;13.00;;;;;3.61;77.86;100039.19;5032382;28;46277;-82
2023/01/19 03:24:26;;;;;;;;;14.75;12.50;;;;;3.61;78.18;100039.19;5033360;28;45978;-79
2023/01/19 03:26:57;;;;;;;;;9.25;9.00;;;;;3.73;77.91;100048.88;5032845;28;45827;-79
2023/01/19 03:29:27;;;;;;;;;16.00;13.00;;;;;3.70;77.82;100035.28;5032325;28;46462;-78
2023/01/19 03:31:55;;;;;;;;;17.25;12.25;;;;;3.72;77.94;100041.22;5032319;28;46116;-79
2023/01/19 03:37:46;;;;;;;;;13.25;11.00;;;;;3.77;77.82;100055.59;5032153;28;45839;-80
2023/01/19 03:40:11;;;;;;;;;21.75;15.50;;;;;3.74;77.79;100052.31;5054737;28;45773;-78
2023/01/19 03:42:39;;;;;;;;;16.00;13.75;;;;;3.78;77.81;100057.25;5055657;28;46765;-78
2023/01/19 03:45:06;;;;;;;;;17.25;16.00;;;;;3.68;77.80;100044.88;5056285;28;45559;-78
2023/01/19 03:47:33;;;;;;;;;17.50;13.25;;;;;3.71;78.01;100057.66;5055384;28;45698;-78
2023/01/19 03:53:21;;;;;;;;;16.50;11.25;;;;;3.67;77.91;100056.16;5054376;28;46305;-80
2023/01/19 03:55:50;;;;;;;;;14.50;11.50;;;;;3.68;77.57;100055.22;5054522;28;45768;-79
2023/01/19 03:58:16;;;;;;;;;17.50;13.75;;;;;3.69;77.49;100057.75;5054599;28;45696;-78
2023/01/19 04:00:41;;;;;;;;;13.50;11.50;;;;;3.63;77.72;100050.28;5054921;28;45701;-76
2023/01/19 04:03:12;;;;;;;;;16.75;11.50;;;;;3.61;77.47;100053.88;5054754;28;46551;-78
2023/01/19 04:08:59;;;;;;;;;18.00;13.25;;;;;3.64;77.69;100056.31;5054413;28;45454;-78
2023/01/19 04:11:25;;;;;;;;;13.25;12.50;;;;;3.66;77.59;100063.09;5053964;28;47041;-82
2023/01/19 04:13:50;;;;;;;;;13.00;10.75;;;;;3.73;77.90;100064.44;5054381;28;46553;-81
2023/01/19 04:16:19;;;;;;;;;10.00;7.50;;;;;3.69;77.61;100054.31;5053787;28;45581;-79
2023/01/19 04:18:44;;;;;;;;;16.25;9.50;;;;;3.63;77.62;100044.25;5054422;28;45649;-78
2023/01/19 04:24:45;;;;;;;;;11.75;10.50;;;;;3.76;77.69;100064.28;5064951;28;46701;-81
2023/01/19 04:27:11;;;;;;;;;12.50;10.00;;;;;3.77;77.46;100059.94;5074583;28;45533;-81
2023/01/19 04:29:36;;;;;;;;;13.75;10.75;;;;;3.76;77.72;100060.84;5056165;28;45942;-80
2023/01/19 04:32:01;;;;;;;;;9.50;8.00;;;;;3.76;77.59;100061.69;5074321;28;45495;-80
2023/01/19 04:34:27;;;;;;;;;10.00;9.00;;;;;3.76;77.60;100061.69;5074774;28;45609;-79
2023/01/19 04:40:14;;;;;;;;;13.25;12.50;;;;;3.82;77.57;100057.94;5073548;28;45761;-80
2023/01/19 04:42:44;;;;;;;;;7.25;7.00;;;;;3.76;77.58;100040.97;5074045;28;45872;-81
2023/01/19 04:45:11;;;;;;;;;13.00;11.00;;;;;3.83;77.48;100054.44;5074009;28;46383;-80
2023/01/19 04:47:36;;;;;;;;;10.25;7.75;;;;;3.87;77.69;100071.50;5074293;28;45926;-80
2023/01/19 04:50:03;;;;;;;;;14.50;13.25;;;;;3.89;77.58;100056.69;5073949;28;45473;-81
2023/01/19 04:52:35;;;;;;;;;12.25;11.00;;;;;3.88;77.16;100051.63;5073810;28;46253;-81
2023/01/19 04:55:03;;;;;;;;;14.00;14.00;;;;;3.78;77.13;100040.88;5073882;28;45644;-81
2023/01/19 04:57:29;;;;;;;;;13.00;11.00;;;;;3.92;77.13;100059.13;5055413;28;46216;-80
2023/01/19 04:59:55;;;;;;;;;13.00;10.00;;;;;3.92;77.31;100063.47;5073827;28;45808;-76
2023/01/19 05:02:22;;;;;;;;;10.50;9.75;;;;;3.93;77.15;100065.16;5073722;28;47110;-79
2023/01/19 05:04:47;;;;;;;;;16.50;10.50;;;;;3.92;77.20;100064.31;5073910;28;46973;-78
2023/01/19 05:10:35;;;;;;;;;13.00;10.00;;;;;3.80;77.31;100052.00;5073779;28;45601;-80
2023/01/19 05:13:01;;;;;;;;;8.00;4.75;;;;;3.79;76.99;100047.72;5074062;27;46320;-78
2023/01/19 05:15:26;;;;;;;;;13.00;9.50;;;;;3.66;77.23;100041.53;5073991;28;46664;-79
2023/01/19 05:17:51;;;;;;;;;12.25;8.00;;;;;3.78;77.28;100062.44;5074250;28;45528;-80
2023/01/19 05:20:17;;;;;;;;;8.25;7.25;;;;;3.75;77.23;100070.38;5074101;28;45708;-80
2023/01/19 05:22:49;;;;;;;;;10.00;8.75;;;;;3.67;77.50;100056.16;5073883;28;45524;-78
2023/01/19 05:25:14;;;;;;;;;9.50;7.00;;;;;3.68;77.55;100055.22;5073524;28;45700;-81
2023/01/19 05:27:40;;;;;;;;;8.50;6.50;;;;;3.49;77.16;100020.84;5073940;28;45591;-79
2023/01/19 05:30:06;;;;;;;;;8.00;7.00;;;;;3.66;77.03;100062.25;5075844;28;45694;-81
2023/01/19 05:32:31;;;;;;;;;8.00;7.00;;;;;3.58;77.01;100051.44;5074428;28;45592;-80
2023/01/19 05:34:57;;;;;;;;;10.75;7.25;;;;;3.60;77.28;100063.41;5073308;28;45553;-80
2023/01/19 05:40:44;;;;;;;;;5.25;5.25;;;;;3.57;77.33;100057.53;5073487;28;45609;-78
2023/01/19 05:43:10;;;;;;;;;10.50;8.00;;;;;3.59;77.41;100066.91;5073360;28;45607;-79
2023/01/19 05:45:37;;;;;;;;;9.00;7.25;;;;;3.58;77.37;100066.97;5073586;28;45729;-79
2023/01/19 05:48:03;;;;;;;;;10.50;7.75;;;;;3.47;77.04;100051.16;5073679;28;45549;-78
2023/01/19 05:50:28;;;;;;;;;9.50;7.00;;;;;3.57;77.46;100065.28;5073795;28;45717;-80
2023/01/19 05:56:16;;;;;;;;;8.25;8.25;;;;;3.43;77.33;100052.22;5076303;28;46120;-82
2023/01/19 05:58:41;;;;;;;;;8.00;6.50;;;;;3.51;77.14;100074.22;5076415;28;45774;-79
2023/01/19 06:01:09;;;;;;;;;7.00;5.50;;;;;3.36;77.53;100049.94;5076207;28;45688;-80
2023/01/19 06:03:35;;;;;;;;;8.25;4.50;;;;;3.38;77.50;100055.06;5076562;28;45509;-78
2023/01/19 06:06:01;;;;;;;;;8.25;6.75;;;;;3.51;77.32;100069.03;5076286;28;46030;-76
2023/01/19 06:08:27;;;;;;;;;5.50;5.25;;;;;3.38;77.17;100042.94;5076389;28;45707;-78
2023/01/19 06:10:52;;;;;;;;;10.00;8.00;;;;;3.13;77.41;100014.00;5076716;28;45682;-78
2023/01/19 06:13:18;;;;;;;;;9.50;7.00;;;;;3.47;77.39;100066.69;5076468;28;45538;-77
2023/01/19 06:15:43;;;;;;;;;7.25;5.50;;;;;3.34;77.50;100041.44;5076212;28;45853;-77
2023/01/19 06:18:09;;;;;;;;;8.75;6.75;;;;;3.44;77.22;100061.66;5076469;28;45827;-78
2023/01/19 06:20:35;;;;;;;;;10.00;7.00;;;;;3.54;77.29;100073.22;5057797;28;45546;-77
2023/01/19 06:26:23;;;;;;;;;7.50;5.50;;;;;3.48;77.41;100070.94;5066916;28;45796;-78
2023/01/19 06:28:50;;;;;;;;;8.00;7.50;;;;;3.54;77.33;100088.78;5076709;28;45804;-80
2023/01/19 06:31:15;;;;;;;;;7.50;5.50;;;;;3.31;77.20;100057.09;5076445;28;45769;-82
2023/01/19 06:33:41;;;;;;;;;8.75;6.75;;;;;3.34;77.55;100049.19;5075985;28;45640;-80
2023/01/19 06:36:06;;;;;;;;;8.00;5.00;;;;;3.50;77.54;100088.09;5076363;28;45704;-81
2023/01/19 06:41:53;;;;;;;;;13.75;8.50;;;;;3.48;77.36;100092.50;5075806;28;45596;-79
2023/01/19 06:44:19;;;;;;;;;8.00;6.50;;;;;3.53;77.57;100094.84;5075870;28;45569;-82
2023/01/19 06:46:44;;;;;;;;;6.00;5.50;;;;;3.54;77.54;100099.13;5075995;28;45896;-79
2023/01/19 06:49:09;;;;;;;;;7.50;4.50;;;;;3.53;77.46;100092.25;5075859;28;45733;-81
2023/01/19 06:51:35;;;;;;;;;9.00;6.00;;;;;3.52;77.26;100095.75;5076169;28;45778;-83
2023/01/19 06:57:22;;;;;;;;;7.50;4.50;;;;;3.57;77.40;100093.78;5076184;28;46195;-80
2023/01/19 06:59:47;;;;;;;;;8.00;6.00;;;;;3.58;77.25;100100.63;5076168;28;45760;-77
2023/01/19 07:02:18;;;;;;;;;6.50;4.50;;;;;3.57;77.71;100097.22;5075412;28;45742;-79
2023/01/19 07:04:44;;;;;;;;;6.00;4.25;;;;;3.53;77.41;100095.69;5075328;28;46441;-81
2023/01/19 07:07:09;;;;;;;;;6.00;5.00;;;;;3.53;77.41;100100.88;5076531;28;45728;-80
2023/01/19 07:09:34;;;;;;;;;6.25;5.75;;;;;3.52;77.54;100104.38;5076427;28;45550;-82
2023/01/19 07:12:00;;;;;;;;;8.00;5.00;;;;;3.43;77.50;100081.53;5077028;28;45473;-80
2023/01/19 07:14:32;;;;;;;;;6.00;4.25;;;;;3.35;77.44;100070.72;5076252;28;46294;-80
2023/01/19 07:16:57;;;;;;;;;19.25;12.25;;;;;3.50;77.42;100097.63;5076334;28;46006;-80
2023/01/19 07:19:22;;;;;;;;;7.25;5.00;;;;;3.49;77.25;100091.59;5077036;28;45534;-80
2023/01/19 07:21:48;;;;;;;;;7.00;5.00;;;;;3.49;77.35;100091.59;5075323;28;45498;-76
2023/01/19 07:27:35;;;;;;;;;6.00;6.00;;;;;3.50;77.40;100089.84;5063682;28;45755;-80
2023/01/19 07:30:00;;;;;;;;;9.50;5.00;;;;;3.44;77.51;100084.97;5075034;28;45608;-78
2023/01/19 07:32:27;;;;;;;;;6.50;4.50;;;;;3.48;77.18;100087.31;5075344;28;45592;-81
2023/01/19 07:34:53;;;;;;;;;8.00;7.75;;;;;3.49;77.53;100085.56;5075013;28;46694;-79
2023/01/19 07:37:18;;;;;;;;;8.00;7.00;;;;;3.22;77.32;100047.22;5075232;28;46069;-79
2023/01/19 07:39:44;;;;;;;;;10.50;9.75;;;;;3.53;77.35;100100.03;5075071;28;45556;-81
2023/01/19 07:42:09;;;;;;;;;7.00;5.25;;;;;3.53;77.17;100098.28;5074973;28;45758;-80
2023/01/19 07:44:34;;;;;;;;;8.25;5.50;;;;;3.55;77.38;100105.97;5074825;28;45541;-81
2023/01/19 07:47:00;;;;;;;;;13.25;8.00;;;;;3.55;77.31;100105.97;5074898;28;46128;-79
2023/01/19 07:49:25;;;;;;;;;10.25;9.25;;;;;3.49;77.29;100103.69;5075352;28;45893;-81
2023/01/19 07:51:50;;;;;;;;;10.25;10.00;;;;;3.47;77.36;100096.00;5074752;28;45609;-81
2023/01/19 07:57:37;;;;;;;;;13.00;10.00;;;;;3.47;77.36;100100.34;5074811;28;46041;-79
2023/01/19 08:00:03;;;;;;;;;12.50;10.25;;;;;3.46;77.26;100101.25;5074921;28;45591;-80
2023/01/19 08:02:30;;;;;;;;;8.75;7.50;;;;;3.54;77.07;100115.50;5075015;28;45681;-83
2023/01/19 08:04:56;;;;;;;;;10.25;8.00;;;;;3.43;77.17;100102.25;5075660;28;45714;-81
2023/01/19 08:07:21;;;;;;;;;16.00;9.50;;;;;3.58;77.04;100118.75;5075876;28;46124;-79
2023/01/19 08:13:08;;;;;;;;;8.50;7.75;;;;;3.54;77.09;100112.06;5077055;28;45743;-80
2023/01/19 08:15:33;;;;;;;;;10.00;9.00;;;;;3.50;77.30;100113.16;5074384;28;45582;-79
2023/01/19 08:18:08;;;;;;;;;10.75;8.50;;;;;3.50;77.25;100105.38;5073418;28;46178;-78
2023/01/19 08:20:35;;;;;;;;;11.00;10.00;;;;;3.54;77.20;100120.69;5074010;28;45825;-76
2023/01/19 08:23:01;;;;;;;;;8.00;7.00;;;;;3.59;77.31;100133.41;5074661;28;45776;-78
2023/01/19 08:25:38;;;;;;;;;10.25;10.00;;;;;3.49;76.81;100108.88;5074005;28;45659;-75
2023/01/19 08:28:05;;;;;;;;;5.00;4.25;;;;;3.65;76.98;100135.69;5073849;28;46226;-76
2023/01/19 08:30:32;;;;;;;;;4.00;4.00;;;;;3.68;76.93;100135.50;5074211;28;45540;-76
2023/01/19 08:33:02;;;;;;;;;10.50;9.00;;;;;3.61;76.99;100121.22;5074241;28;45530;-74
2023/01/19 08:35:31;;;;;;;;;7.50;7.00;;;;;3.60;77.04;100115.19;5073727;28;46771;-74
2023/01/19 08:38:00;;;;;;;;;10.25;7.75;;;;;3.75;76.94;100137.72;5073685;28;45540;-74
2023/01/19 08:40:29;;;;;;;;;9.75;7.75;;;;;3.51;76.81;100094.13;5073963;28;45573;-75
2023/01/19 08:43:02;;;;;;;;;7.00;6.00;;;;;3.45;76.79;100065.94;5055656;28;45609;-76
2023/01/19 08:45:29;;;;;;;;;14.00;10.25;;;;;3.88;76.53;100132.78;5073913;27;45672;-76
2023/01/19 08:47:56;;;;;;;;;12.50;10.75;;;;;3.58;76.60;100079.91;5073915;28;46251;-74
2023/01/19 08:50:21;;;;;;;;;12.50;10.75;;;;;3.96;76.87;100135.78;5073872;28;45753;-74
2023/01/19 08:52:47;;;;;;;;;15.00;11.50;;;;;3.66;76.41;100082.97;5055456;28;45885;-74
2023/01/19 08:58:34;;;;;;;;;12.00;10.00;;;;;3.95;76.48;100118.56;5073658;28;45696;-74
2023/01/19 09:01:00;;;;;;;;;14.00;11.00;;;;;4.10;76.73;100132.50;5074113;28;45714;-74
2023/01/19 09:03:25;;;;;;;;;13.50;13.00;;;;;4.19;76.65;100148.41;5073901;28;45871;-76
2023/01/19 09:05:50;;;;;;;;;20.50;13.50;;;;;4.18;76.53;100133.75;5073657;28;47784;-76
2023/01/19 09:08:16;;;;;;;;;16.00;13.00;;;;;4.26;76.03;100151.53;5073183;28;46272;-75
2023/01/19 09:10:50;;;;;;;;;14.00;12.25;;;;;4.29;76.02;100150.50;5073154;28;45682;-75
2023/01/19 09:13:18;;;;;;;;;14.25;11.75;;;;;4.31;76.25;100154.72;5073343;28;45664;-75
2023/01/19 09:15:44;;;;;;;;;16.50;13.00;;;;;4.25;75.98;100134.28;5073141;28;46490;-75
2023/01/19 09:18:14;;;;;;;;;14.25;13.00;;;;;4.36;76.05;100160.50;5073051;28;46392;-76
2023/01/19 09:20:43;;;;;;;;;18.00;10.75;;;;;4.38;75.93;100148.25;5073015;28;46395;-77
2023/01/19 09:23:10;;;;;;;;;19.25;14.75;;;;;4.43;76.16;100143.66;5056118;28;45739;-74
2023/01/19 09:28:58;;;;;;;;;22.75;19.00;;;;;4.47;76.03;100144.34;5065913;28;45806;-75
2023/01/19 09:31:23;;;;;;;;;37.25;29.50;;;;;4.52;75.76;100139.75;5076610;28;45982;-75
2023/01/19 09:33:48;;;;;;;;;23.75;14.50;;;;;4.53;75.82;100137.09;5076025;28;45488;-75
2023/01/19 09:36:14;;;;;;;;;22.00;17.00;;;;;4.58;75.62;100144.63;5076884;28;45569;-75
2023/01/19 09:38:39;;;;;;;;;21.25;19.75;;;;;4.60;75.70;100140.16;5076202;28;46020;-76
2023/01/19 09:41:16;;;;;;;;;26.75;21.50;;;;;4.64;75.83;100146.88;5075872;28;45601;-77
2023/01/19 09:43:56;;;;;;;;;20.00;14.25;;;;;4.67;75.17;100148.47;5076678;28;45546;-76
2023/01/19 09:46:38;;;;;;;;;16.25;14.25;;;;;4.65;75.27;100149.38;5076366;28;46626;-76
2023/01/19 09:49:13;;;;;;;;;24.00;19.00;;;;;4.67;75.47;100156.25;5076431;28;46328;-76
2023/01/19 09:51:43;;;;;;;;;18.50;16.00;;;;;4.63;75.52;100150.41;5076798;28;45717;-74
2023/01/19 09:54:30;;;;;;;;;19.75;17.00;;;;;4.64;74.93;100150.28;5076093;28;45469;-75
2023/01/19 09:56:56;;;;;;;;;18.00;14.25;;;;;4.63;75.10;100151.22;5076152;28;45648;-76
2023/01/19 09:59:32;;;;;;;;;21.25;16.75;;;;;4.73;75.22;100158.50;5075705;28;45633;-76
2023/01/19 10:02:19;;;;;;;;;20.00;17.00;;;;;4.75;75.17;100156.69;5076249;28;45703;-76
2023/01/19 10:04:48;;;;;;;;;18.50;13.25;;;;;4.77;74.97;100153.06;5076333;28;45594;-76
2023/01/19 10:07:34;;;;;;;;;18.75;16.25;;;;;4.78;75.31;100151.31;5075806;28;46498;-76
2023/01/19 10:10:20;;;;;;;;;20.50;15.25;;;;;4.74;75.42;100148.06;5076000;28;47508;-76
2023/01/19 10:13:01;;;;;;;;;20.00;16.00;;;;;4.82;75.24;100156.25;5075692;28;45516;-76
2023/01/19 10:15:38;;;;;;;;;27.50;18.25;;;;;4.85;75.50;100158.69;5075984;28;45640;-76
2023/01/19 10:18:11;;;;;;;;;26.00;20.75;;;;;4.70;75.30;100133.56;5075812;28;46663;-77
2023/01/19 10:20:42;;;;;;;;;19.00;18.00;;;;;4.82;75.18;100147.63;5075982;28;46133;-76
2023/01/19 10:23:22;;;;;;;;;23.50;21.00;;;;;4.93;75.05;100158.25;5075388;28;45665;-77
2023/01/19 10:25:48;;;;;;;;;20.25;17.00;;;;;4.91;74.87;100152.31;5057968;28;45835;-75
2023/01/19 10:28:15;;;;;;;;;19.75;19.75;;;;;4.98;75.14;100154.47;5075704;28;45545;-77
2023/01/19 10:30:41;;;;;;;;;22.50;18.00;;;;;5.01;74.98;100151.72;5075141;28;46158;-74
2023/01/19 10:33:10;;;;;;;;;27.00;21.50;;;;;4.94;74.42;100136.56;5076980;28;45723;-79
2023/01/19 10:35:35;;;;;;;;;16.75;13.00;;;;;5.07;74.71;100140.97;5094346;27;45882;-75
2023/01/19 10:38:02;;;;;;;;;21.75;17.50;;;;;5.12;75.05;100147.69;5077277;28;45633;-79
2023/01/19 10:40:43;;;;;;;;;22.00;20.00;;;;;5.14;74.74;100143.25;5059544;28;45725;-75
2023/01/19 10:43:46;;;;;;;;;27.00;20.25;;;;;5.17;74.77;100137.88;5077217;28;45647;-79
2023/01/19 10:46:36;;;;;;;;;23.25;18.00;;;;;5.21;74.75;100141.97;5035265;28;45887;-78
2023/01/19 10:49:02;;;;;;;;;26.00;23.75;;;;;5.24;74.45;100131.41;5035062;28;46810;-77
2023/01/19 10:51:28;;;;;;;;;28.25;20.25;;;;;5.23;74.44;100128.00;5033633;28;46057;-78
2023/01/19 10:53:57;;;;;;;;;21.75;18.75;;;;;5.31;74.47;100128.38;5033572;28;45706;-77
2023/01/19 10:56:33;;;;;;;;;19.25;16.25;;;;;5.09;74.60;100078.59;5036972;28;45797;-82
2023/01/19 10:59:00;;;;;;;;;24.25;21.50;;;;;5.38;74.52;100123.69;5035311;28;46480;-79
2023/01/19 11:01:27;;;;;;;;;26.00;21.25;;;;;5.32;74.69;100111.88;5035033;28;46396;-81
2023/01/19 11:03:55;;;;;;;;;23.25;20.50;;;;;5.42;74.31;100119.97;5035817;28;45642;-77
2023/01/19 11:06:25;;;;;;;;;22.00;19.25;;;;;5.43;74.62;100122.50;5034606;28;45740;-78
2023/01/19 11:09:07;;;;;;;;;22.25;21.50;;;;;5.44;74.13;100107.75;5035237;28;45690;-81
2023/01/19 11:11:42;;;;;;;;;26.00;22.00;;;;;5.40;74.36;100106.22;5034694;28;46433;-77
2023/01/19 11:14:13;;;;;;;;;22.00;17.00;;;;;5.48;74.41;100111.84;5033685;28;45756;-78
2023/01/19 11:16:39;;;;;;;;;24.00;19.75;;;;;5.51;73.94;100121.22;5049430;28;45734;-81
2023/01/19 11:19:16;;;;;;;;;25.00;19.50;;;;;5.52;73.99;100121.09;5075620;28;45599;-77
2023/01/19 11:21:41;;;;;;;;;26.00;19.00;;;;;5.48;74.01;100099.69;5076065;28;45722;-77
2023/01/19 11:24:13;;;;;;;;;21.75;18.50;;;;;5.31;73.90;100070.41;5076148;28;45611;-75
2023/01/19 11:26:46;;;;;;;;;23.50;21.25;;;;;5.57;74.21;100113.88;5075664;28;45516;-78
2023/01/19 11:29:26;;;;;;;;;25.00;21.25;;;;;5.50;74.34;100099.59;5056826;28;47030;-79
2023/01/19 11:31:53;;;;;;;;;27.25;22.75;;;;;5.63;74.05;100110.94;5076411;28;46182;-78
2023/01/19 11:34:32;;;;;;;;;22.25;19.00;;;;;5.65;74.26;100106.50;5076112;28;45984;-78
2023/01/19 11:37:29;;;;;;;;;22.75;20.25;;;;;5.68;73.95;100103.69;5075993;28;45966;-79
2023/01/19 11:39:59;;;;;;;;;26.25;20.50;;;;;5.71;73.94;100105.28;5072640;28;45746;-79
2023/01/19 11:42:27;;;;;;;;;23.25;21.00;;;;;5.32;74.19;100038.31;5077038;28;46376;-79
2023/01/19 11:45:01;;;;;;;;;25.00;22.00;;;;;5.74;73.51;100098.13;5077582;28;45534;-80
2023/01/19 11:47:55;;;;;;;;;28.75;22.75;;;;;5.77;73.85;100090.19;5082134;28;45526;-80
2023/01/19 11:50:27;;;;;;;;;29.50;25.25;;;;;5.79;74.00;100090.06;5081661;28;45592;-79
2023/01/19 11:53:13;;;;;;;;;22.25;19.75;;;;;5.83;73.62;100081.19;5080626;28;45652;-77
2023/01/19 11:59:01;;;;;;;;;27.75;21.00;;;;;5.78;73.58;100052.00;5077901;28;45765;-80
2023/01/19 12:01:42;;;;;;;;;25.50;23.00;;;;;5.85;73.54;100053.31;5075584;28;45856;-83
2023/01/19 12:04:21;;;;;;;;;26.00;22.25;;;;;5.93;73.65;100066.72;5076050;28;46275;-80
2023/01/19 12:06:51;;;;;;;;;23.25;20.25;;;;;5.92;74.05;100053.81;5076987;28;45613;-82
2023/01/19 12:09:23;;;;;;;;;24.75;19.25;;;;;5.97;73.96;100068.22;5077202;28;45881;-82
2023/01/19 12:15:28;;;;;;;;;13.25;12.75;;;;;6.05;73.76;100063.34;5075783;28;45769;-85
2023/01/19 12:17:58;;;;;;;;;19.25;15.00;;;;;6.06;73.09;100057.22;5076122;28;45705;-80
2023/01/19 12:20:26;;;;;;;;;12.75;12.25;;;;;6.05;73.13;100039.13;5078172;28;45695;-82
2023/01/19 12:23:08;;;;;;;;;15.50;12.00;;;;;6.08;73.41;100047.59;5078193;28;45743;-81
2023/01/19 12:32:35;;;;;;;;;13.00;12.25;;;;;6.14;73.42;100028.16;5059551;27;45679;-85
2023/01/19 12:35:01;;;;;;;;;14.50;12.00;;;;;6.17;73.13;100025.38;5058606;28;46601;-79
2023/01/19 12:37:29;;;;;;;;;13.00;12.25;;;;;6.19;73.23;100020.91;5058273;28;46160;-80
2023/01/19 12:40:00;;;;;;;;;15.00;15.00;;;;;6.17;72.83;100020.16;5056394;28;45960;-79
2023/01/19 12:45:47;;;;;;;;;17.25;13.25;;;;;6.29;73.26;100029.81;5058958;28;46036;-77
2023/01/19 12:48:25;;;;;;;;;16.00;12.00;;;;;6.19;72.75;100013.94;5057710;28;45653;-75
2023/01/19 12:50:50;;;;;;;;;12.00;10.75;;;;;6.29;72.74;100022.84;5059847;28;45526;-78
2023/01/19 12:53:19;;;;;;;;;15.00;13.00;;;;;6.19;72.82;100002.72;5059645;28;45704;-80
2023/01/19 12:55:58;;;;;;;;;13.50;12.00;;;;;6.29;72.75;100022.84;5058158;28;45681;-78
2023/01/19 13:02:24;;;;;;;;;19.25;15.75;;;;;6.30;72.41;100016.72;5055508;28;45936;-77
2023/01/19 13:05:11;;;;;;;;;14.25;13.25;;;;;6.28;72.77;100020.34;5057292;28;45696;-78
2023/01/19 13:08:03;;;;;;;;;16.00;12.25;;;;;6.26;72.53;100019.63;5056728;28;45909;-78
2023/01/19 13:11:05;;;;;;;;;14.25;13.00;;;;;6.23;72.39;100014.59;5051349;28;46183;-80
2023/01/19 13:13:41;;;;;;;;;14.25;12.25;;;;;6.19;72.30;100005.31;5054336;28;45572;-78